sensor_id;sensor_type;location;lat;lon;timestamp;temperature;humidity
16958;DHT22;8595;52.542;11.974;2022-07-09T00:00:58;15.20;99.90
16958;DHT22;8595;52.542;11.974;2022-07-09T00:03:25;15.30;99.90
16958;DHT22;8595;52.542;11.974;2022-07-09T00:05:51;15.30;99.90
16958;DHT22;8595;52.542;11.974;2022-07-09T00:08:21;15.30;99.90
16958;DHT22;8595;52.542;11.974;2022-07-09T00:10:49;15.20;99.90
16958;DHT22;8595;52.542;11.974;2022-07-09T00:13:15;15.20;99.90
16958;DHT22;8595;52.542;11.974;2022-07-09T00:15:42;15.20;99.90
16958;DHT22;8595;52.542;11.974;2022-07-09T00:18:09;15.10;99.90
16958;DHT22;8595;52.542;11.974;2022-07-09T00:20:35;15.00;99.90
16958;DHT22;8595;52.542;11.974;2022-07-09T00:23:02;15.00;99.90
16958;DHT22;8595;52.542;11.974;2022-07-09T00:25:29;15.00;99.90
16958;DHT22;8595;52.542;11.974;2022-07-09T00:27:57;15.00;99.90
16958;DHT22;8595;52.542;11.974;2022-07-09T00:30:23;15.00;99.90
16958;DHT22;8595;52.542;11.974;2022-07-09T00:32:50;15.00;99.90
16958;DHT22;8595;52.542;11.974;2022-07-09T00:35:16;15.00;99.90
16958;DHT22;8595;52.542;11.974;2022-07-09T00:37:43;15.10;99.90
16958;DHT22;8595;52.542;11.974;2022-07-09T00:40:10;15.10;99.90
16958;DHT22;8595;52.542;11.974;2022-07-09T00:42:37;15.00;99.90
16958;DHT22;8595;52.542;11.974;2022-07-09T00:45:06;15.00;99.90
16958;DHT22;8595;52.542;11.974;2022-07-09T00:47:33;15.10;99.90
16958;DHT22;8595;52.542;11.974;2022-07-09T00:50:00;15.10;99.90
16958;DHT22;8595;52.542;11.974;2022-07-09T00:52:27;15.20;99.90
16958;DHT22;8595;52.542;11.974;2022-07-09T00:54:55;15.20;99.90
16958;DHT22;8595;52.542;11.974;2022-07-09T00:57:22;15.20;99.90
16958;DHT22;8595;52.542;11.974;2022-07-09T00:59:49;15.10;99.90
16958;DHT22;8595;52.542;11.974;2022-07-09T01:02:18;15.00;99.90
16958;DHT22;8595;52.542;11.974;2022-07-09T01:04:46;14.90;99.90
16958;DHT22;8595;52.542;11.974;2022-07-09T01:07:12;14.90;99.90
16958;DHT22;8595;52.542;11.974;2022-07-09T01:09:39;14.80;99.90
16958;DHT22;8595;52.542;11.974;2022-07-09T01:12:07;14.80;99.90
16958;DHT22;8595;52.542;11.974;2022-07-09T01:14:34;14.90;99.90
16958;DHT22;8595;52.542;11.974;2022-07-09T01:17:02;15.00;99.90
16958;DHT22;8595;52.542;11.974;2022-07-09T01:19:31;15.10;99.90
16958;DHT22;8595;52.542;11.974;2022-07-09T01:21:59;15.20;99.90
16958;DHT22;8595;52.542;11.974;2022-07-09T01:24:26;15.20;99.90
16958;DHT22;8595;52.542;11.974;2022-07-09T01:26:54;15.20;99.90
16958;DHT22;8595;52.542;11.974;2022-07-09T01:29:20;15.20;99.90
16958;DHT22;8595;52.542;11.974;2022-07-09T01:31:47;15.20;99.90
16958;DHT22;8595;52.542;11.974;2022-07-09T01:34:14;15.20;99.90
16958;DHT22;8595;52.542;11.974;2022-07-09T01:36:40;15.10;99.90
16958;DHT22;8595;52.542;11.974;2022-07-09T01:39:08;15.10;99.90
16958;DHT22;8595;52.542;11.974;2022-07-09T01:41:35;15.00;99.90
16958;DHT22;8595;52.542;11.974;2022-07-09T01:44:02;15.00;99.90
16958;DHT22;8595;52.542;11.974;2022-07-09T01:46:29;15.00;99.90
16958;DHT22;8595;52.542;11.974;2022-07-09T01:48:55;15.20;99.90
16958;DHT22;8595;52.542;11.974;2022-07-09T01:51:22;15.20;99.90
16958;DHT22;8595;52.542;11.974;2022-07-09T01:53:48;15.20;99.90
16958;DHT22;8595;52.542;11.974;2022-07-09T01:56:16;15.20;99.90
16958;DHT22;8595;52.542;11.974;2022-07-09T01:58:43;15.20;99.90
16958;DHT22;8595;52.542;11.974;2022-07-09T02:01:10;15.20;99.90
16958;DHT22;8595;52.542;11.974;2022-07-09T02:03:37;15.20;99.90
16958;DHT22;8595;52.542;11.974;2022-07-09T02:06:04;15.10;99.90
16958;DHT22;8595;52.542;11.974;2022-07-09T02:08:31;15.10;99.90
16958;DHT22;8595;52.542;11.974;2022-07-09T02:10:57;14.90;99.90
16958;DHT22;8595;52.542;11.974;2022-07-09T02:13:25;14.90;99.90
16958;DHT22;8595;52.542;11.974;2022-07-09T02:15:52;14.90;99.90
16958;DHT22;8595;52.542;11.974;2022-07-09T02:18:19;14.80;99.90
16958;DHT22;8595;52.542;11.974;2022-07-09T02:20:46;14.80;99.90
16958;DHT22;8595;52.542;11.974;2022-07-09T02:23:12;14.80;99.90
16958;DHT22;8595;52.542;11.974;2022-07-09T02:25:39;14.70;99.90
16958;DHT22;8595;52.542;11.974;2022-07-09T02:28:06;14.70;99.90
16958;DHT22;8595;52.542;11.974;2022-07-09T02:30:34;14.70;99.90
16958;DHT22;8595;52.542;11.974;2022-07-09T02:33:02;14.70;99.90
16958;DHT22;8595;52.542;11.974;2022-07-09T02:35:29;14.70;99.90
16958;DHT22;8595;52.542;11.974;2022-07-09T02:37:55;14.70;99.90
16958;DHT22;8595;52.542;11.974;2022-07-09T02:40:23;14.80;99.90
16958;DHT22;8595;52.542;11.974;2022-07-09T02:42:49;14.90;99.90
16958;DHT22;8595;52.542;11.974;2022-07-09T02:45:16;15.00;99.90
16958;DHT22;8595;52.542;11.974;2022-07-09T02:47:44;15.00;99.90
16958;DHT22;8595;52.542;11.974;2022-07-09T02:50:10;15.10;99.90
16958;DHT22;8595;52.542;11.974;2022-07-09T02:52:37;15.00;99.90
16958;DHT22;8595;52.542;11.974;2022-07-09T02:55:04;14.90;99.90
16958;DHT22;8595;52.542;11.974;2022-07-09T02:57:31;14.90;99.90
16958;DHT22;8595;52.542;11.974;2022-07-09T02:59:57;14.90;99.90
16958;DHT22;8595;52.542;11.974;2022-07-09T03:02:24;14.80;99.90
16958;DHT22;8595;52.542;11.974;2022-07-09T03:04:52;14.80;99.90
16958;DHT22;8595;52.542;11.974;2022-07-09T03:07:19;14.90;99.90
16958;DHT22;8595;52.542;11.974;2022-07-09T03:09:46;14.90;99.90
16958;DHT22;8595;52.542;11.974;2022-07-09T03:12:13;14.90;99.90
16958;DHT22;8595;52.542;11.974;2022-07-09T03:14:40;14.80;99.90
16958;DHT22;8595;52.542;11.974;2022-07-09T03:17:06;14.90;99.90
16958;DHT22;8595;52.542;11.974;2022-07-09T03:19:33;14.80;99.90
16958;DHT22;8595;52.542;11.974;2022-07-09T03:22:01;14.70;99.90
16958;DHT22;8595;52.542;11.974;2022-07-09T03:24:27;14.70;99.90
16958;DHT22;8595;52.542;11.974;2022-07-09T03:26:54;14.70;99.90
16958;DHT22;8595;52.542;11.974;2022-07-09T03:29:21;14.70;99.90
16958;DHT22;8595;52.542;11.974;2022-07-09T03:31:47;14.90;99.90
16958;DHT22;8595;52.542;11.974;2022-07-09T03:34:14;14.90;99.90
16958;DHT22;8595;52.542;11.974;2022-07-09T03:36:41;15.00;99.90
16958;DHT22;8595;52.542;11.974;2022-07-09T03:39:09;15.00;99.90
16958;DHT22;8595;52.542;11.974;2022-07-09T03:41:36;15.00;99.90
16958;DHT22;8595;52.542;11.974;2022-07-09T03:44:02;15.00;99.90
16958;DHT22;8595;52.542;11.974;2022-07-09T03:46:29;15.00;99.90
16958;DHT22;8595;52.542;11.974;2022-07-09T03:48:56;15.00;99.90
16958;DHT22;8595;52.542;11.974;2022-07-09T03:51:23;15.00;99.90
16958;DHT22;8595;52.542;11.974;2022-07-09T03:53:49;15.00;99.90
16958;DHT22;8595;52.542;11.974;2022-07-09T03:56:18;15.00;99.90
16958;DHT22;8595;52.542;11.974;2022-07-09T03:58:45;15.00;99.90
16958;DHT22;8595;52.542;11.974;2022-07-09T04:01:12;15.10;99.90
16958;DHT22;8595;52.542;11.974;2022-07-09T04:03:39;15.10;99.90
16958;DHT22;8595;52.542;11.974;2022-07-09T04:06:05;15.10;99.90
16958;DHT22;8595;52.542;11.974;2022-07-09T04:08:32;15.20;99.90
16958;DHT22;8595;52.542;11.974;2022-07-09T04:10:58;15.20;99.90
16958;DHT22;8595;52.542;11.974;2022-07-09T04:13:26;15.40;99.90
16958;DHT22;8595;52.542;11.974;2022-07-09T04:15:53;15.40;99.90
16958;DHT22;8595;52.542;11.974;2022-07-09T04:18:20;15.30;99.90
16958;DHT22;8595;52.542;11.974;2022-07-09T04:20:47;15.30;99.90
16958;DHT22;8595;52.542;11.974;2022-07-09T04:23:13;15.40;99.90
16958;DHT22;8595;52.542;11.974;2022-07-09T04:25:40;15.40;99.90
16958;DHT22;8595;52.542;11.974;2022-07-09T04:28:07;15.50;99.90
16958;DHT22;8595;52.542;11.974;2022-07-09T04:30:35;15.40;99.90
16958;DHT22;8595;52.542;11.974;2022-07-09T04:33:01;15.30;99.90
16958;DHT22;8595;52.542;11.974;2022-07-09T04:35:28;15.40;99.90
16958;DHT22;8595;52.542;11.974;2022-07-09T04:37:54;15.50;99.90
16958;DHT22;8595;52.542;11.974;2022-07-09T04:40:21;15.70;99.90
16958;DHT22;8595;52.542;11.974;2022-07-09T04:42:48;15.60;99.90
16958;DHT22;8595;52.542;11.974;2022-07-09T04:45:15;15.50;99.90
16958;DHT22;8595;52.542;11.974;2022-07-09T04:47:43;15.60;99.90
16958;DHT22;8595;52.542;11.974;2022-07-09T04:50:10;15.60;99.90
16958;DHT22;8595;52.542;11.974;2022-07-09T04:52:37;15.70;99.90
16958;DHT22;8595;52.542;11.974;2022-07-09T04:55:05;15.70;99.90
16958;DHT22;8595;52.542;11.974;2022-07-09T04:57:32;15.70;99.90
16958;DHT22;8595;52.542;11.974;2022-07-09T04:59:58;15.70;99.90
16958;DHT22;8595;52.542;11.974;2022-07-09T05:02:25;15.90;99.90
16958;DHT22;8595;52.542;11.974;2022-07-09T05:04:53;15.90;99.90
16958;DHT22;8595;52.542;11.974;2022-07-09T05:07:20;15.90;99.90
16958;DHT22;8595;52.542;11.974;2022-07-09T05:09:46;16.00;99.90
16958;DHT22;8595;52.542;11.974;2022-07-09T05:12:13;16.10;99.90
16958;DHT22;8595;52.542;11.974;2022-07-09T05:14:40;16.00;99.90
16958;DHT22;8595;52.542;11.974;2022-07-09T05:17:06;16.10;99.90
16958;DHT22;8595;52.542;11.974;2022-07-09T05:19:33;16.20;99.90
16958;DHT22;8595;52.542;11.974;2022-07-09T05:22:01;16.20;99.90
16958;DHT22;8595;52.542;11.974;2022-07-09T05:24:27;16.00;99.90
16958;DHT22;8595;52.542;11.974;2022-07-09T05:26:54;16.00;99.90
16958;DHT22;8595;52.542;11.974;2022-07-09T05:29:21;16.00;99.90
16958;DHT22;8595;52.542;11.974;2022-07-09T05:31:47;16.10;99.90
16958;DHT22;8595;52.542;11.974;2022-07-09T05:34:15;16.00;99.90
16958;DHT22;8595;52.542;11.974;2022-07-09T05:36:42;16.00;99.90
16958;DHT22;8595;52.542;11.974;2022-07-09T05:39:10;15.90;99.90
16958;DHT22;8595;52.542;11.974;2022-07-09T05:41:36;16.00;99.90
16958;DHT22;8595;52.542;11.974;2022-07-09T05:44:03;16.00;99.90
16958;DHT22;8595;52.542;11.974;2022-07-09T05:46:30;16.00;99.90
16958;DHT22;8595;52.542;11.974;2022-07-09T05:48:56;15.90;99.90
16958;DHT22;8595;52.542;11.974;2022-07-09T05:51:23;16.00;99.90
16958;DHT22;8595;52.542;11.974;2022-07-09T05:53:50;16.00;99.90
16958;DHT22;8595;52.542;11.974;2022-07-09T05:56:17;15.90;99.90
16958;DHT22;8595;52.542;11.974;2022-07-09T05:58:44;15.90;99.90
16958;DHT22;8595;52.542;11.974;2022-07-09T06:01:11;16.00;99.90
16958;DHT22;8595;52.542;11.974;2022-07-09T06:03:38;16.20;99.90
16958;DHT22;8595;52.542;11.974;2022-07-09T06:06:05;16.30;99.90
16958;DHT22;8595;52.542;11.974;2022-07-09T06:08:32;16.30;99.90
16958;DHT22;8595;52.542;11.974;2022-07-09T06:10:59;16.20;99.90
16958;DHT22;8595;52.542;11.974;2022-07-09T06:13:27;16.30;99.90
16958;DHT22;8595;52.542;11.974;2022-07-09T06:15:54;16.20;99.90
16958;DHT22;8595;52.542;11.974;2022-07-09T06:18:21;16.30;99.90
16958;DHT22;8595;52.542;11.974;2022-07-09T06:20:48;16.20;99.90
16958;DHT22;8595;52.542;11.974;2022-07-09T06:23:14;16.20;99.90
16958;DHT22;8595;52.542;11.974;2022-07-09T06:25:41;16.20;99.90
16958;DHT22;8595;52.542;11.974;2022-07-09T06:28:07;16.30;99.90
16958;DHT22;8595;52.542;11.974;2022-07-09T06:30:35;16.40;99.90
16958;DHT22;8595;52.542;11.974;2022-07-09T06:33:02;16.60;99.90
16958;DHT22;8595;52.542;11.974;2022-07-09T06:35:29;16.70;99.90
16958;DHT22;8595;52.542;11.974;2022-07-09T06:37:56;16.80;99.90
16958;DHT22;8595;52.542;11.974;2022-07-09T06:40:23;16.90;99.90
16958;DHT22;8595;52.542;11.974;2022-07-09T06:42:50;16.90;99.90
16958;DHT22;8595;52.542;11.974;2022-07-09T06:45:16;16.90;99.90
16958;DHT22;8595;52.542;11.974;2022-07-09T06:47:44;17.10;99.90
16958;DHT22;8595;52.542;11.974;2022-07-09T06:50:11;17.00;99.90
16958;DHT22;8595;52.542;11.974;2022-07-09T06:52:37;17.00;99.90
16958;DHT22;8595;52.542;11.974;2022-07-09T06:55:05;16.90;99.90
16958;DHT22;8595;52.542;11.974;2022-07-09T06:57:31;16.90;99.90
16958;DHT22;8595;52.542;11.974;2022-07-09T06:59:58;16.90;99.90
16958;DHT22;8595;52.542;11.974;2022-07-09T07:02:25;17.00;99.90
16958;DHT22;8595;52.542;11.974;2022-07-09T07:04:52;17.10;99.90
16958;DHT22;8595;52.542;11.974;2022-07-09T07:07:19;17.30;99.90
16958;DHT22;8595;52.542;11.974;2022-07-09T07:09:46;17.30;99.90
16958;DHT22;8595;52.542;11.974;2022-07-09T07:12:13;17.40;99.90
16958;DHT22;8595;52.542;11.974;2022-07-09T07:14:39;17.30;99.90
16958;DHT22;8595;52.542;11.974;2022-07-09T07:17:06;17.40;99.90
16958;DHT22;8595;52.542;11.974;2022-07-09T07:19:33;17.40;99.90
16958;DHT22;8595;52.542;11.974;2022-07-09T07:22:01;17.30;99.90
16958;DHT22;8595;52.542;11.974;2022-07-09T07:24:28;17.40;99.90
16958;DHT22;8595;52.542;11.974;2022-07-09T07:26:55;17.50;99.90
16958;DHT22;8595;52.542;11.974;2022-07-09T07:29:22;17.50;99.90
16958;DHT22;8595;52.542;11.974;2022-07-09T07:31:48;17.50;99.90
16958;DHT22;8595;52.542;11.974;2022-07-09T07:34:16;17.80;99.90
16958;DHT22;8595;52.542;11.974;2022-07-09T07:36:44;18.00;99.90
16958;DHT22;8595;52.542;11.974;2022-07-09T07:39:12;18.20;99.90
16958;DHT22;8595;52.542;11.974;2022-07-09T07:41:38;18.40;99.90
16958;DHT22;8595;52.542;11.974;2022-07-09T07:44:05;18.60;99.90
16958;DHT22;8595;52.542;11.974;2022-07-09T07:46:31;18.60;99.90
16958;DHT22;8595;52.542;11.974;2022-07-09T07:48:58;18.60;99.90
16958;DHT22;8595;52.542;11.974;2022-07-09T07:51:24;18.50;99.90
16958;DHT22;8595;52.542;11.974;2022-07-09T07:53:51;18.50;99.90
16958;DHT22;8595;52.542;11.974;2022-07-09T07:56:19;18.60;99.90
16958;DHT22;8595;52.542;11.974;2022-07-09T07:58:45;18.60;99.90
16958;DHT22;8595;52.542;11.974;2022-07-09T08:01:12;18.60;99.90
16958;DHT22;8595;52.542;11.974;2022-07-09T08:03:39;18.80;99.90
16958;DHT22;8595;52.542;11.974;2022-07-09T08:06:05;18.80;99.90
16958;DHT22;8595;52.542;11.974;2022-07-09T08:08:33;18.90;99.90
16958;DHT22;8595;52.542;11.974;2022-07-09T08:10:59;18.90;99.90
16958;DHT22;8595;52.542;11.974;2022-07-09T08:13:29;19.00;99.90
16958;DHT22;8595;52.542;11.974;2022-07-09T08:15:56;19.00;99.90
16958;DHT22;8595;52.542;11.974;2022-07-09T08:18:22;18.80;99.90
16958;DHT22;8595;52.542;11.974;2022-07-09T08:20:49;18.90;99.90
16958;DHT22;8595;52.542;11.974;2022-07-09T08:23:17;18.90;99.90
16958;DHT22;8595;52.542;11.974;2022-07-09T08:25:44;18.90;99.90
16958;DHT22;8595;52.542;11.974;2022-07-09T08:28:10;18.80;99.90
16958;DHT22;8595;52.542;11.974;2022-07-09T08:30:38;18.60;99.90
16958;DHT22;8595;52.542;11.974;2022-07-09T08:33:05;18.70;99.90
16958;DHT22;8595;52.542;11.974;2022-07-09T08:35:31;18.80;99.90
16958;DHT22;8595;52.542;11.974;2022-07-09T08:37:58;19.00;99.90
16958;DHT22;8595;52.542;11.974;2022-07-09T08:40:25;18.90;99.90
16958;DHT22;8595;52.542;11.974;2022-07-09T08:42:52;19.00;99.90
16958;DHT22;8595;52.542;11.974;2022-07-09T08:45:20;19.00;99.90
16958;DHT22;8595;52.542;11.974;2022-07-09T08:47:48;19.00;99.90
16958;DHT22;8595;52.542;11.974;2022-07-09T08:50:15;19.10;99.90
16958;DHT22;8595;52.542;11.974;2022-07-09T08:52:42;19.10;99.90
16958;DHT22;8595;52.542;11.974;2022-07-09T08:55:09;19.10;99.90
16958;DHT22;8595;52.542;11.974;2022-07-09T08:57:37;19.20;99.90
16958;DHT22;8595;52.542;11.974;2022-07-09T09:00:05;19.10;99.90
16958;DHT22;8595;52.542;11.974;2022-07-09T09:02:36;19.20;99.90
16958;DHT22;8595;52.542;11.974;2022-07-09T09:05:10;19.10;99.90
16958;DHT22;8595;52.542;11.974;2022-07-09T09:07:37;19.10;99.90
16958;DHT22;8595;52.542;11.974;2022-07-09T09:10:04;19.10;99.90
16958;DHT22;8595;52.542;11.974;2022-07-09T09:12:31;19.20;99.90
16958;DHT22;8595;52.542;11.974;2022-07-09T09:14:57;19.20;99.90
16958;DHT22;8595;52.542;11.974;2022-07-09T09:17:25;19.30;99.90
16958;DHT22;8595;52.542;11.974;2022-07-09T09:19:51;19.50;99.90
16958;DHT22;8595;52.542;11.974;2022-07-09T09:22:19;19.50;99.90
16958;DHT22;8595;52.542;11.974;2022-07-09T09:24:49;19.60;99.90
16958;DHT22;8595;52.542;11.974;2022-07-09T09:27:16;19.60;99.90
16958;DHT22;8595;52.542;11.974;2022-07-09T09:29:49;19.60;99.90
16958;DHT22;8595;52.542;11.974;2022-07-09T09:32:19;19.70;99.90
16958;DHT22;8595;52.542;11.974;2022-07-09T09:34:51;19.80;99.90
16958;DHT22;8595;52.542;11.974;2022-07-09T09:37:26;19.90;99.90
16958;DHT22;8595;52.542;11.974;2022-07-09T09:39:53;20.10;99.90
16958;DHT22;8595;52.542;11.974;2022-07-09T09:42:23;20.10;99.90
16958;DHT22;8595;52.542;11.974;2022-07-09T09:44:50;20.00;99.90
16958;DHT22;8595;52.542;11.974;2022-07-09T09:47:19;20.10;99.90
16958;DHT22;8595;52.542;11.974;2022-07-09T09:49:48;20.30;99.90
16958;DHT22;8595;52.542;11.974;2022-07-09T09:52:19;20.40;99.90
16958;DHT22;8595;52.542;11.974;2022-07-09T09:54:48;20.60;99.90
16958;DHT22;8595;52.542;11.974;2022-07-09T09:57:15;20.70;99.90
16958;DHT22;8595;52.542;11.974;2022-07-09T09:59:44;20.50;99.90
16958;DHT22;8595;52.542;11.974;2022-07-09T10:02:11;20.60;99.90
16958;DHT22;8595;52.542;11.974;2022-07-09T10:04:39;20.80;99.90
16958;DHT22;8595;52.542;11.974;2022-07-09T10:07:08;20.70;99.90
16958;DHT22;8595;52.542;11.974;2022-07-09T10:09:35;20.50;99.90
16958;DHT22;8595;52.542;11.974;2022-07-09T10:12:04;20.40;99.90
16958;DHT22;8595;52.542;11.974;2022-07-09T10:14:32;20.40;99.90
16958;DHT22;8595;52.542;11.974;2022-07-09T10:17:17;20.50;99.90
16958;DHT22;8595;52.542;11.974;2022-07-09T10:19:54;20.70;99.90
16958;DHT22;8595;52.542;11.974;2022-07-09T10:22:21;20.90;99.90
16958;DHT22;8595;52.542;11.974;2022-07-09T10:24:50;21.00;99.90
16958;DHT22;8595;52.542;11.974;2022-07-09T10:27:19;21.10;99.90
16958;DHT22;8595;52.542;11.974;2022-07-09T10:30:04;21.30;99.90
16958;DHT22;8595;52.542;11.974;2022-07-09T10:32:31;21.80;99.90
16958;DHT22;8595;52.542;11.974;2022-07-09T10:34:59;21.90;99.90
16958;DHT22;8595;52.542;11.974;2022-07-09T10:37:34;22.00;99.90
16958;DHT22;8595;52.542;11.974;2022-07-09T10:40:12;21.80;99.90
16958;DHT22;8595;52.542;11.974;2022-07-09T10:42:40;21.70;99.90
16958;DHT22;8595;52.542;11.974;2022-07-09T10:45:23;21.60;99.90
16958;DHT22;8595;52.542;11.974;2022-07-09T10:47:52;21.70;99.90
16958;DHT22;8595;52.542;11.974;2022-07-09T10:50:19;21.80;99.90
16958;DHT22;8595;52.542;11.974;2022-07-09T10:52:46;21.70;99.90
16958;DHT22;8595;52.542;11.974;2022-07-09T10:55:15;21.80;99.90
16958;DHT22;8595;52.542;11.974;2022-07-09T10:57:44;22.00;99.90
16958;DHT22;8595;52.542;11.974;2022-07-09T11:00:14;22.30;99.90
16958;DHT22;8595;52.542;11.974;2022-07-09T11:02:51;22.30;99.90
16958;DHT22;8595;52.542;11.974;2022-07-09T11:05:18;22.30;99.90
16958;DHT22;8595;52.542;11.974;2022-07-09T11:08:01;22.50;99.90
16958;DHT22;8595;52.542;11.974;2022-07-09T11:10:28;22.10;99.90
16958;DHT22;8595;52.542;11.974;2022-07-09T11:12:57;22.30;99.90
16958;DHT22;8595;52.542;11.974;2022-07-09T11:15:26;22.40;99.90
16958;DHT22;8595;52.542;11.974;2022-07-09T11:18:00;22.30;99.90
16958;DHT22;8595;52.542;11.974;2022-07-09T11:20:29;22.20;99.90
16958;DHT22;8595;52.542;11.974;2022-07-09T11:22:57;22.80;99.90
16958;DHT22;8595;52.542;11.974;2022-07-09T11:25:26;23.50;99.90
16958;DHT22;8595;52.542;11.974;2022-07-09T11:27:53;23.40;99.90
16958;DHT22;8595;52.542;11.974;2022-07-09T11:30:21;23.30;99.90
16958;DHT22;8595;52.542;11.974;2022-07-09T11:32:48;23.30;99.90
16958;DHT22;8595;52.542;11.974;2022-07-09T11:35:27;23.30;99.90
16958;DHT22;8595;52.542;11.974;2022-07-09T11:37:54;23.50;99.90
16958;DHT22;8595;52.542;11.974;2022-07-09T11:40:21;23.40;99.90
16958;DHT22;8595;52.542;11.974;2022-07-09T11:42:48;23.20;99.90
16958;DHT22;8595;52.542;11.974;2022-07-09T11:45:21;23.50;99.90
16958;DHT22;8595;52.542;11.974;2022-07-09T11:47:48;23.60;99.90
16958;DHT22;8595;52.542;11.974;2022-07-09T11:50:17;24.40;99.90
16958;DHT22;8595;52.542;11.974;2022-07-09T11:52:46;25.70;99.90
16958;DHT22;8595;52.542;11.974;2022-07-09T11:55:16;25.80;99.90
16958;DHT22;8595;52.542;11.974;2022-07-09T11:57:55;25.60;99.90
16958;DHT22;8595;52.542;11.974;2022-07-09T12:00:25;25.60;99.90
16958;DHT22;8595;52.542;11.974;2022-07-09T12:02:53;24.60;99.90
16958;DHT22;8595;52.542;11.974;2022-07-09T12:05:27;23.90;99.90
16958;DHT22;8595;52.542;11.974;2022-07-09T12:07:57;23.70;99.90
16958;DHT22;8595;52.542;11.974;2022-07-09T12:10:28;23.90;99.90
16958;DHT22;8595;52.542;11.974;2022-07-09T12:12:55;23.80;99.90
16958;DHT22;8595;52.542;11.974;2022-07-09T12:15:23;23.70;99.90
16958;DHT22;8595;52.542;11.974;2022-07-09T12:17:51;23.40;99.90
16958;DHT22;8595;52.542;11.974;2022-07-09T12:20:19;23.60;99.90
16958;DHT22;8595;52.542;11.974;2022-07-09T12:22:46;24.20;99.90
16958;DHT22;8595;52.542;11.974;2022-07-09T12:25:13;25.40;99.90
16958;DHT22;8595;52.542;11.974;2022-07-09T12:27:39;25.90;99.90
16958;DHT22;8595;52.542;11.974;2022-07-09T12:30:07;26.40;99.90
16958;DHT22;8595;52.542;11.974;2022-07-09T12:32:35;26.50;99.90
16958;DHT22;8595;52.542;11.974;2022-07-09T12:35:02;26.00;99.90
16958;DHT22;8595;52.542;11.974;2022-07-09T12:37:29;25.70;99.90
16958;DHT22;8595;52.542;11.974;2022-07-09T12:39:55;25.80;99.90
16958;DHT22;8595;52.542;11.974;2022-07-09T12:42:22;26.20;99.90
16958;DHT22;8595;52.542;11.974;2022-07-09T12:44:48;26.50;99.90
16958;DHT22;8595;52.542;11.974;2022-07-09T12:47:16;26.70;99.90
16958;DHT22;8595;52.542;11.974;2022-07-09T12:49:44;26.20;99.90
16958;DHT22;8595;52.542;11.974;2022-07-09T12:52:11;26.50;99.90
16958;DHT22;8595;52.542;11.974;2022-07-09T12:54:38;27.00;99.90
16958;DHT22;8595;52.542;11.974;2022-07-09T12:57:05;27.00;99.90
16958;DHT22;8595;52.542;11.974;2022-07-09T12:59:32;26.70;99.90
16958;DHT22;8595;52.542;11.974;2022-07-09T13:01:59;26.60;99.90
16958;DHT22;8595;52.542;11.974;2022-07-09T13:04:25;26.40;99.90
16958;DHT22;8595;52.542;11.974;2022-07-09T13:06:53;26.60;99.90
16958;DHT22;8595;52.542;11.974;2022-07-09T13:09:20;27.10;99.90
16958;DHT22;8595;52.542;11.974;2022-07-09T13:11:47;27.70;99.90
16958;DHT22;8595;52.542;11.974;2022-07-09T13:14:14;27.60;99.90
16958;DHT22;8595;52.542;11.974;2022-07-09T13:16:50;27.20;99.90
16958;DHT22;8595;52.542;11.974;2022-07-09T13:19:49;27.00;99.90
16958;DHT22;8595;52.542;11.974;2022-07-09T13:22:18;27.20;99.90
16958;DHT22;8595;52.542;11.974;2022-07-09T13:24:45;27.20;99.90
16958;DHT22;8595;52.542;11.974;2022-07-09T13:27:12;27.50;99.90
16958;DHT22;8595;52.542;11.974;2022-07-09T13:29:39;27.50;99.90
16958;DHT22;8595;52.542;11.974;2022-07-09T13:32:06;27.60;99.90
16958;DHT22;8595;52.542;11.974;2022-07-09T13:34:33;27.60;99.90
16958;DHT22;8595;52.542;11.974;2022-07-09T13:36:59;26.80;99.90
16958;DHT22;8595;52.542;11.974;2022-07-09T13:39:27;26.50;99.90
16958;DHT22;8595;52.542;11.974;2022-07-09T13:41:54;26.20;99.90
16958;DHT22;8595;52.542;11.974;2022-07-09T13:44:21;26.70;99.90
16958;DHT22;8595;52.542;11.974;2022-07-09T13:46:47;27.20;99.90
16958;DHT22;8595;52.542;11.974;2022-07-09T13:49:14;27.10;99.90
16958;DHT22;8595;52.542;11.974;2022-07-09T13:51:41;26.80;99.90
16958;DHT22;8595;52.542;11.974;2022-07-09T13:54:07;26.00;99.90
16958;DHT22;8595;52.542;11.974;2022-07-09T13:56:35;25.60;99.90
16958;DHT22;8595;52.542;11.974;2022-07-09T13:59:02;26.20;99.90
16958;DHT22;8595;52.542;11.974;2022-07-09T14:01:29;27.10;99.90
16958;DHT22;8595;52.542;11.974;2022-07-09T14:03:57;27.80;99.90
16958;DHT22;8595;52.542;11.974;2022-07-09T14:06:23;27.80;99.90
16958;DHT22;8595;52.542;11.974;2022-07-09T14:08:51;28.10;99.90
16958;DHT22;8595;52.542;11.974;2022-07-09T14:11:18;28.60;99.90
16958;DHT22;8595;52.542;11.974;2022-07-09T14:13:46;29.50;99.90
16958;DHT22;8595;52.542;11.974;2022-07-09T14:16:14;29.40;99.90
16958;DHT22;8595;52.542;11.974;2022-07-09T14:18:40;28.90;99.90
16958;DHT22;8595;52.542;11.974;2022-07-09T14:21:07;28.80;99.90
16958;DHT22;8595;52.542;11.974;2022-07-09T14:23:33;28.50;99.90
16958;DHT22;8595;52.542;11.974;2022-07-09T14:26:00;28.60;99.90
16958;DHT22;8595;52.542;11.974;2022-07-09T14:28:27;28.70;99.90
16958;DHT22;8595;52.542;11.974;2022-07-09T14:30:55;27.90;99.90
16958;DHT22;8595;52.542;11.974;2022-07-09T14:33:21;27.10;99.90
16958;DHT22;8595;52.542;11.974;2022-07-09T14:35:48;26.10;99.90
16958;DHT22;8595;52.542;11.974;2022-07-09T14:38:15;25.00;99.90
16958;DHT22;8595;52.542;11.974;2022-07-09T14:40:42;24.20;99.90
16958;DHT22;8595;52.542;11.974;2022-07-09T14:43:08;23.80;99.90
16958;DHT22;8595;52.542;11.974;2022-07-09T14:45:35;23.30;99.90
16958;DHT22;8595;52.542;11.974;2022-07-09T14:48:03;22.80;99.90
16958;DHT22;8595;52.542;11.974;2022-07-09T14:50:33;22.00;99.90
16958;DHT22;8595;52.542;11.974;2022-07-09T14:53:00;21.10;99.90
16958;DHT22;8595;52.542;11.974;2022-07-09T14:55:28;20.30;99.90
16958;DHT22;8595;52.542;11.974;2022-07-09T14:57:55;20.00;99.90
16958;DHT22;8595;52.542;11.974;2022-07-09T15:00:21;19.60;99.90
16958;DHT22;8595;52.542;11.974;2022-07-09T15:02:48;19.50;99.90
16958;DHT22;8595;52.542;11.974;2022-07-09T15:05:16;19.50;99.90
16958;DHT22;8595;52.542;11.974;2022-07-09T15:07:43;19.60;99.90
16958;DHT22;8595;52.542;11.974;2022-07-09T15:10:10;19.80;99.90
16958;DHT22;8595;52.542;11.974;2022-07-09T15:12:36;19.80;99.90
16958;DHT22;8595;52.542;11.974;2022-07-09T15:15:04;19.90;99.90
16958;DHT22;8595;52.542;11.974;2022-07-09T15:17:31;20.10;99.90
16958;DHT22;8595;52.542;11.974;2022-07-09T15:19:58;20.50;99.90
16958;DHT22;8595;52.542;11.974;2022-07-09T15:22:26;21.10;99.90
16958;DHT22;8595;52.542;11.974;2022-07-09T15:24:52;22.10;99.90
16958;DHT22;8595;52.542;11.974;2022-07-09T15:27:19;23.10;99.90
16958;DHT22;8595;52.542;11.974;2022-07-09T15:29:45;24.00;99.90
16958;DHT22;8595;52.542;11.974;2022-07-09T15:32:12;24.80;99.90